sensor_id;sensor_type;location;lat;lon;timestamp;P1;durP1;ratioP1;P2;durP2;ratioP2
29280;SDS011;25048;49.590;11.026;2023-06-24T00:02:24;7.05;;;4.80;;
29280;SDS011;25048;49.590;11.026;2023-06-24T00:04:52;6.22;;;4.15;;
29280;SDS011;25048;49.590;11.026;2023-06-24T00:07:19;6.53;;;4.58;;
29280;SDS011;25048;49.590;11.026;2023-06-24T00:09:51;5.35;;;4.35;;
29280;SDS011;25048;49.590;11.026;2023-06-24T00:12:19;7.47;;;5.08;;
29280;SDS011;25048;49.590;11.026;2023-06-24T00:14:46;5.85;;;4.53;;
29280;SDS011;25048;49.590;11.026;2023-06-24T00:17:14;5.60;;;4.70;;
29280;SDS011;25048;49.590;11.026;2023-06-24T00:19:43;5.58;;;4.45;;
29280;SDS011;25048;49.590;11.026;2023-06-24T00:22:11;6.80;;;5.00;;
29280;SDS011;25048;49.590;11.026;2023-06-24T00:24:38;5.08;;;4.15;;
29280;SDS011;25048;49.590;11.026;2023-06-24T00:27:07;8.33;;;4.75;;
29280;SDS011;25048;49.590;11.026;2023-06-24T00:29:35;5.87;;;4.28;;
29280;SDS011;25048;49.590;11.026;2023-06-24T00:32:02;6.67;;;4.85;;
29280;SDS011;25048;49.590;11.026;2023-06-24T00:34:30;6.40;;;5.00;;
29280;SDS011;25048;49.590;11.026;2023-06-24T00:36:58;6.72;;;4.78;;
29280;SDS011;25048;49.590;11.026;2023-06-24T00:39:25;6.62;;;4.70;;
29280;SDS011;25048;49.590;11.026;2023-06-24T00:41:53;5.92;;;4.35;;
29280;SDS011;25048;49.590;11.026;2023-06-24T00:44:20;6.58;;;4.28;;
29280;SDS011;25048;49.590;11.026;2023-06-24T00:46:48;5.55;;;4.53;;
29280;SDS011;25048;49.590;11.026;2023-06-24T00:49:15;6.55;;;4.12;;
29280;SDS011;25048;49.590;11.026;2023-06-24T00:51:43;9.58;;;4.75;;
29280;SDS011;25048;49.590;11.026;2023-06-24T00:54:12;10.30;;;4.85;;
29280;SDS011;25048;49.590;11.026;2023-06-24T00:56:40;5.47;;;4.17;;
29280;SDS011;25048;49.590;11.026;2023-06-24T00:59:08;11.48;;;4.20;;
29280;SDS011;25048;49.590;11.026;2023-06-24T01:01:39;8.83;;;4.90;;
29280;SDS011;25048;49.590;11.026;2023-06-24T01:04:07;10.23;;;5.43;;
29280;SDS011;25048;49.590;11.026;2023-06-24T01:06:35;8.08;;;4.85;;
29280;SDS011;25048;49.590;11.026;2023-06-24T01:09:05;6.92;;;5.20;;
29280;SDS011;25048;49.590;11.026;2023-06-24T01:11:33;9.70;;;5.05;;
29280;SDS011;25048;49.590;11.026;2023-06-24T01:14:00;8.28;;;5.03;;
29280;SDS011;25048;49.590;11.026;2023-06-24T01:16:32;6.55;;;5.20;;
29280;SDS011;25048;49.590;11.026;2023-06-24T01:19:09;6.50;;;4.75;;
29280;SDS011;25048;49.590;11.026;2023-06-24T01:21:34;6.60;;;5.17;;
29280;SDS011;25048;49.590;11.026;2023-06-24T01:24:11;7.03;;;5.45;;
29280;SDS011;25048;49.590;11.026;2023-06-24T01:34:55;5.53;;;4.10;;
29280;SDS011;25048;49.590;11.026;2023-06-24T01:37:44;5.13;;;4.47;;
29280;SDS011;25048;49.590;11.026;2023-06-24T01:43:08;7.72;;;4.80;;
29280;SDS011;25048;49.590;11.026;2023-06-24T01:45:37;9.27;;;6.30;;
29280;SDS011;25048;49.590;11.026;2023-06-24T01:48:14;6.13;;;4.50;;
29280;SDS011;25048;49.590;11.026;2023-06-24T01:50:45;10.63;;;5.43;;
29280;SDS011;25048;49.590;11.026;2023-06-24T01:53:17;4.43;;;4.03;;
29280;SDS011;25048;49.590;11.026;2023-06-24T01:55:47;7.60;;;5.37;;
29280;SDS011;25048;49.590;11.026;2023-06-24T01:58:16;6.27;;;4.83;;
29280;SDS011;25048;49.590;11.026;2023-06-24T02:00:45;6.35;;;4.35;;
29280;SDS011;25048;49.590;11.026;2023-06-24T02:03:14;6.42;;;4.70;;
29280;SDS011;25048;49.590;11.026;2023-06-24T02:05:44;7.43;;;4.70;;
29280;SDS011;25048;49.590;11.026;2023-06-24T02:08:13;6.07;;;4.93;;
29280;SDS011;25048;49.590;11.026;2023-06-24T02:10:42;5.87;;;4.30;;
29280;SDS011;25048;49.590;11.026;2023-06-24T02:13:12;7.07;;;5.20;;
29280;SDS011;25048;49.590;11.026;2023-06-24T02:15:39;8.23;;;5.33;;
29280;SDS011;25048;49.590;11.026;2023-06-24T02:18:08;6.60;;;5.03;;
29280;SDS011;25048;49.590;11.026;2023-06-24T02:20:36;7.37;;;5.10;;
29280;SDS011;25048;49.590;11.026;2023-06-24T02:23:06;6.17;;;5.17;;
29280;SDS011;25048;49.590;11.026;2023-06-24T02:25:35;8.23;;;5.80;;
29280;SDS011;25048;49.590;11.026;2023-06-24T02:28:05;9.08;;;5.78;;
29280;SDS011;25048;49.590;11.026;2023-06-24T02:30:34;6.70;;;5.12;;
29280;SDS011;25048;49.590;11.026;2023-06-24T02:33:04;6.33;;;5.30;;
29280;SDS011;25048;49.590;11.026;2023-06-24T02:35:32;8.95;;;5.58;;
29280;SDS011;25048;49.590;11.026;2023-06-24T02:38:00;10.63;;;6.15;;
29280;SDS011;25048;49.590;11.026;2023-06-24T02:40:29;6.73;;;4.93;;
29280;SDS011;25048;49.590;11.026;2023-06-24T02:42:57;6.37;;;5.17;;
29280;SDS011;25048;49.590;11.026;2023-06-24T02:45:24;12.43;;;7.17;;
29280;SDS011;25048;49.590;11.026;2023-06-24T02:47:53;9.57;;;5.97;;
29280;SDS011;25048;49.590;11.026;2023-06-24T02:50:21;10.40;;;5.40;;
29280;SDS011;25048;49.590;11.026;2023-06-24T02:52:50;9.00;;;5.27;;
29280;SDS011;25048;49.590;11.026;2023-06-24T02:55:19;9.00;;;5.40;;
29280;SDS011;25048;49.590;11.026;2023-06-24T02:57:47;7.77;;;5.27;;
29280;SDS011;25048;49.590;11.026;2023-06-24T03:00:16;7.03;;;5.30;;
29280;SDS011;25048;49.590;11.026;2023-06-24T03:02:44;6.47;;;4.90;;
29280;SDS011;25048;49.590;11.026;2023-06-24T03:05:14;7.47;;;5.27;;
29280;SDS011;25048;49.590;11.026;2023-06-24T03:07:42;6.60;;;4.87;;
29280;SDS011;25048;49.590;11.026;2023-06-24T03:10:10;6.73;;;4.77;;
29280;SDS011;25048;49.590;11.026;2023-06-24T03:12:37;6.63;;;5.20;;
29280;SDS011;25048;49.590;11.026;2023-06-24T03:15:05;10.13;;;5.67;;
29280;SDS011;25048;49.590;11.026;2023-06-24T03:17:35;6.53;;;5.00;;
29280;SDS011;25048;49.590;11.026;2023-06-24T03:20:05;6.33;;;5.00;;
29280;SDS011;25048;49.590;11.026;2023-06-24T03:22:34;5.93;;;4.80;;
29280;SDS011;25048;49.590;11.026;2023-06-24T03:25:01;6.00;;;4.80;;
29280;SDS011;25048;49.590;11.026;2023-06-24T03:27:29;6.17;;;4.37;;
29280;SDS011;25048;49.590;11.026;2023-06-24T03:29:57;7.90;;;5.40;;
29280;SDS011;25048;49.590;11.026;2023-06-24T03:32:24;8.37;;;5.43;;
29280;SDS011;25048;49.590;11.026;2023-06-24T03:34:52;9.73;;;5.07;;
29280;SDS011;25048;49.590;11.026;2023-06-24T03:37:19;7.33;;;4.60;;
29280;SDS011;25048;49.590;11.026;2023-06-24T03:39:47;6.93;;;5.33;;
29280;SDS011;25048;49.590;11.026;2023-06-24T03:42:15;7.10;;;4.57;;
29280;SDS011;25048;49.590;11.026;2023-06-24T03:44:42;9.67;;;4.80;;
29280;SDS011;25048;49.590;11.026;2023-06-24T03:47:10;8.57;;;4.87;;
29280;SDS011;25048;49.590;11.026;2023-06-24T03:49:37;5.80;;;4.70;;
29280;SDS011;25048;49.590;11.026;2023-06-24T03:52:05;6.00;;;4.67;;
29280;SDS011;25048;49.590;11.026;2023-06-24T03:54:34;7.33;;;4.60;;
29280;SDS011;25048;49.590;11.026;2023-06-24T03:57:02;7.60;;;4.77;;
29280;SDS011;25048;49.590;11.026;2023-06-24T03:59:29;9.40;;;4.87;;
29280;SDS011;25048;49.590;11.026;2023-06-24T04:01:57;5.83;;;4.93;;
29280;SDS011;25048;49.590;11.026;2023-06-24T04:04:24;7.30;;;5.07;;
29280;SDS011;25048;49.590;11.026;2023-06-24T04:06:52;7.10;;;5.20;;
29280;SDS011;25048;49.590;11.026;2023-06-24T04:09:19;6.53;;;5.40;;
29280;SDS011;25048;49.590;11.026;2023-06-24T04:11:48;5.73;;;4.70;;
29280;SDS011;25048;49.590;11.026;2023-06-24T04:14:15;11.83;;;5.57;;
29280;SDS011;25048;49.590;11.026;2023-06-24T04:16:43;14.17;;;6.50;;
29280;SDS011;25048;49.590;11.026;2023-06-24T04:19:10;8.53;;;5.83;;
29280;SDS011;25048;49.590;11.026;2023-06-24T04:21:38;12.97;;;5.77;;
29280;SDS011;25048;49.590;11.026;2023-06-24T04:24:05;9.07;;;6.30;;
29280;SDS011;25048;49.590;11.026;2023-06-24T04:26:33;8.47;;;6.57;;
29280;SDS011;25048;49.590;11.026;2023-06-24T04:29:00;10.63;;;6.70;;
29280;SDS011;25048;49.590;11.026;2023-06-24T04:31:28;8.13;;;6.10;;
29280;SDS011;25048;49.590;11.026;2023-06-24T04:33:55;6.50;;;5.80;;
29280;SDS011;25048;49.590;11.026;2023-06-24T04:36:23;8.50;;;5.70;;
29280;SDS011;25048;49.590;11.026;2023-06-24T04:38:50;6.90;;;6.17;;
29280;SDS011;25048;49.590;11.026;2023-06-24T04:41:18;9.83;;;6.33;;
29280;SDS011;25048;49.590;11.026;2023-06-24T04:43:45;7.63;;;6.10;;
29280;SDS011;25048;49.590;11.026;2023-06-24T04:46:13;7.40;;;5.33;;
29280;SDS011;25048;49.590;11.026;2023-06-24T04:48:40;7.33;;;6.37;;
29280;SDS011;25048;49.590;11.026;2023-06-24T04:51:08;8.70;;;6.47;;
29280;SDS011;25048;49.590;11.026;2023-06-24T04:53:36;8.20;;;6.57;;
29280;SDS011;25048;49.590;11.026;2023-06-24T04:56:03;8.00;;;6.90;;
29280;SDS011;25048;49.590;11.026;2023-06-24T04:58:31;8.07;;;6.60;;
29280;SDS011;25048;49.590;11.026;2023-06-24T05:00:59;9.80;;;7.87;;
29280;SDS011;25048;49.590;11.026;2023-06-24T05:03:26;12.75;;;8.08;;
29280;SDS011;25048;49.590;11.026;2023-06-24T05:05:54;9.77;;;7.80;;
29280;SDS011;25048;49.590;11.026;2023-06-24T05:08:21;13.27;;;8.50;;
29280;SDS011;25048;49.590;11.026;2023-06-24T05:10:49;10.47;;;7.87;;
29280;SDS011;25048;49.590;11.026;2023-06-24T05:13:16;12.68;;;8.75;;
29280;SDS011;25048;49.590;11.026;2023-06-24T05:15:44;10.18;;;8.58;;
29280;SDS011;25048;49.590;11.026;2023-06-24T05:18:11;10.50;;;7.37;;
29280;SDS011;25048;49.590;11.026;2023-06-24T05:20:39;9.08;;;7.03;;
29280;SDS011;25048;49.590;11.026;2023-06-24T05:23:06;12.58;;;8.43;;
29280;SDS011;25048;49.590;11.026;2023-06-24T05:25:34;10.23;;;7.37;;
29280;SDS011;25048;49.590;11.026;2023-06-24T05:28:01;10.75;;;7.25;;
29280;SDS011;25048;49.590;11.026;2023-06-24T05:30:29;10.32;;;7.78;;
29280;SDS011;25048;49.590;11.026;2023-06-24T05:32:56;10.80;;;8.35;;
29280;SDS011;25048;49.590;11.026;2023-06-24T05:35:24;11.08;;;8.15;;
29280;SDS011;25048;49.590;11.026;2023-06-24T05:37:51;8.47;;;7.17;;
29280;SDS011;25048;49.590;11.026;2023-06-24T05:40:19;10.13;;;7.03;;
29280;SDS011;25048;49.590;11.026;2023-06-24T05:42:46;10.65;;;7.85;;
29280;SDS011;25048;49.590;11.026;2023-06-24T05:45:14;10.05;;;6.53;;
29280;SDS011;25048;49.590;11.026;2023-06-24T05:47:41;10.75;;;6.55;;
29280;SDS011;25048;49.590;11.026;2023-06-24T05:50:09;7.87;;;5.92;;
29280;SDS011;25048;49.590;11.026;2023-06-24T05:52:37;8.05;;;5.92;;
29280;SDS011;25048;49.590;11.026;2023-06-24T05:55:04;8.65;;;6.87;;
29280;SDS011;25048;49.590;11.026;2023-06-24T05:57:32;7.83;;;5.90;;
29280;SDS011;25048;49.590;11.026;2023-06-24T05:59:59;8.35;;;6.40;;
29280;SDS011;25048;49.590;11.026;2023-06-24T06:02:28;6.05;;;5.30;;
29280;SDS011;25048;49.590;11.026;2023-06-24T06:04:56;10.23;;;5.95;;
29280;SDS011;25048;49.590;11.026;2023-06-24T06:07:23;7.85;;;5.65;;
29280;SDS011;25048;49.590;11.026;2023-06-24T06:09:51;9.35;;;6.15;;
29280;SDS011;25048;49.590;11.026;2023-06-24T06:12:18;8.68;;;5.33;;
29280;SDS011;25048;49.590;11.026;2023-06-24T06:14:46;7.00;;;5.90;;
29280;SDS011;25048;49.590;11.026;2023-06-24T06:17:14;6.67;;;5.15;;
29280;SDS011;25048;49.590;11.026;2023-06-24T06:19:41;6.70;;;5.00;;
29280;SDS011;25048;49.590;11.026;2023-06-24T06:22:10;9.93;;;6.47;;
29280;SDS011;25048;49.590;11.026;2023-06-24T06:24:39;6.40;;;5.08;;
29280;SDS011;25048;49.590;11.026;2023-06-24T06:27:10;8.90;;;5.30;;
29280;SDS011;25048;49.590;11.026;2023-06-24T06:29:37;6.83;;;4.42;;
29280;SDS011;25048;49.590;11.026;2023-06-24T06:32:05;7.53;;;4.33;;
29280;SDS011;25048;49.590;11.026;2023-06-24T06:34:33;8.18;;;4.55;;
29280;SDS011;25048;49.590;11.026;2023-06-24T06:37:00;10.13;;;5.42;;
29280;SDS011;25048;49.590;11.026;2023-06-24T06:39:28;9.48;;;6.12;;
29280;SDS011;25048;49.590;11.026;2023-06-24T06:41:55;7.60;;;5.28;;
29280;SDS011;25048;49.590;11.026;2023-06-24T06:44:23;6.75;;;4.85;;
29280;SDS011;25048;49.590;11.026;2023-06-24T06:46:50;7.30;;;5.37;;
29280;SDS011;25048;49.590;11.026;2023-06-24T06:49:18;7.15;;;5.05;;
29280;SDS011;25048;49.590;11.026;2023-06-24T06:51:45;6.40;;;4.83;;
29280;SDS011;25048;49.590;11.026;2023-06-24T06:54:13;7.72;;;5.72;;
29280;SDS011;25048;49.590;11.026;2023-06-24T06:56:40;9.33;;;5.40;;
29280;SDS011;25048;49.590;11.026;2023-06-24T06:59:08;7.72;;;5.60;;
29280;SDS011;25048;49.590;11.026;2023-06-24T07:01:35;7.80;;;5.35;;
29280;SDS011;25048;49.590;11.026;2023-06-24T07:04:03;10.32;;;5.42;;
29280;SDS011;25048;49.590;11.026;2023-06-24T07:06:30;5.85;;;4.47;;
29280;SDS011;25048;49.590;11.026;2023-06-24T07:08:58;7.03;;;4.62;;
29280;SDS011;25048;49.590;11.026;2023-06-24T07:11:26;7.95;;;5.30;;
29280;SDS011;25048;49.590;11.026;2023-06-24T07:13:53;7.65;;;4.97;;
29280;SDS011;25048;49.590;11.026;2023-06-24T07:16:21;9.28;;;5.47;;
29280;SDS011;25048;49.590;11.026;2023-06-24T07:18:48;9.43;;;4.70;;
29280;SDS011;25048;49.590;11.026;2023-06-24T07:21:16;5.65;;;4.05;;
29280;SDS011;25048;49.590;11.026;2023-06-24T07:23:43;5.00;;;3.95;;
29280;SDS011;25048;49.590;11.026;2023-06-24T07:26:11;6.65;;;4.58;;
29280;SDS011;25048;49.590;11.026;2023-06-24T07:28:39;7.85;;;4.20;;
29280;SDS011;25048;49.590;11.026;2023-06-24T07:31:06;5.28;;;3.90;;
29280;SDS011;25048;49.590;11.026;2023-06-24T07:33:34;7.58;;;4.47;;
29280;SDS011;25048;49.590;11.026;2023-06-24T07:36:01;5.65;;;4.12;;
29280;SDS011;25048;49.590;11.026;2023-06-24T07:38:29;7.17;;;4.22;;
29280;SDS011;25048;49.590;11.026;2023-06-24T07:40:56;6.05;;;4.40;;
29280;SDS011;25048;49.590;11.026;2023-06-24T07:43:24;5.92;;;4.05;;
29280;SDS011;25048;49.590;11.026;2023-06-24T07:45:51;6.65;;;4.90;;
29280;SDS011;25048;49.590;11.026;2023-06-24T07:48:19;7.50;;;4.45;;
29280;SDS011;25048;49.590;11.026;2023-06-24T07:50:46;7.53;;;4.45;;
29280;SDS011;25048;49.590;11.026;2023-06-24T07:53:15;5.72;;;5.10;;
29280;SDS011;25048;49.590;11.026;2023-06-24T07:55:42;6.97;;;4.17;;
29280;SDS011;25048;49.590;11.026;2023-06-24T07:58:10;4.55;;;3.62;;
29280;SDS011;25048;49.590;11.026;2023-06-24T08:00:37;6.12;;;4.33;;
29280;SDS011;25048;49.590;11.026;2023-06-24T08:03:04;6.92;;;4.17;;
29280;SDS011;25048;49.590;11.026;2023-06-24T08:05:32;5.95;;;3.87;;
29280;SDS011;25048;49.590;11.026;2023-06-24T08:07:59;5.30;;;3.47;;
29280;SDS011;25048;49.590;11.026;2023-06-24T08:10:27;4.55;;;3.95;;
29280;SDS011;25048;49.590;11.026;2023-06-24T08:12:54;8.18;;;4.47;;
29280;SDS011;25048;49.590;11.026;2023-06-24T08:15:22;8.63;;;3.77;;
29280;SDS011;25048;49.590;11.026;2023-06-24T08:17:53;5.35;;;3.77;;
29280;SDS011;25048;49.590;11.026;2023-06-24T08:20:21;5.58;;;4.17;;
29280;SDS011;25048;49.590;11.026;2023-06-24T08:22:50;6.62;;;3.75;;
29280;SDS011;25048;49.590;11.026;2023-06-24T08:25:17;5.47;;;3.37;;
29280;SDS011;25048;49.590;11.026;2023-06-24T08:27:45;5.22;;;3.45;;
29280;SDS011;25048;49.590;11.026;2023-06-24T08:30:13;4.20;;;3.42;;
29280;SDS011;25048;49.590;11.026;2023-06-24T08:32:41;4.60;;;3.75;;
29280;SDS011;25048;49.590;11.026;2023-06-24T08:35:08;5.08;;;3.85;;
29280;SDS011;25048;49.590;11.026;2023-06-24T08:37:36;6.08;;;4.08;;
29280;SDS011;25048;49.590;11.026;2023-06-24T08:40:04;7.85;;;3.90;;
29280;SDS011;25048;49.590;11.026;2023-06-24T08:42:32;7.95;;;4.10;;
29280;SDS011;25048;49.590;11.026;2023-06-24T08:45:00;4.65;;;4.15;;
29280;SDS011;25048;49.590;11.026;2023-06-24T08:47:28;5.78;;;3.72;;
29280;SDS011;25048;49.590;11.026;2023-06-24T08:50:01;5.30;;;4.05;;
29280;SDS011;25048;49.590;11.026;2023-06-24T08:52:30;4.87;;;3.80;;
29280;SDS011;25048;49.590;11.026;2023-06-24T08:55:00;7.03;;;4.55;;
29280;SDS011;25048;49.590;11.026;2023-06-24T08:57:29;5.80;;;3.50;;
29280;SDS011;25048;49.590;11.026;2023-06-24T08:59:56;3.15;;;2.80;;
29280;SDS011;25048;49.590;11.026;2023-06-24T09:02:24;3.72;;;3.00;;
29280;SDS011;25048;49.590;11.026;2023-06-24T09:04:52;3.80;;;2.90;;
29280;SDS011;25048;49.590;11.026;2023-06-24T09:07:28;4.95;;;3.10;;
29280;SDS011;25048;49.590;11.026;2023-06-24T09:09:53;4.58;;;3.33;;
29280;SDS011;25048;49.590;11.026;2023-06-24T09:12:23;3.85;;;3.10;;
29280;SDS011;25048;49.590;11.026;2023-06-24T09:14:54;8.65;;;3.67;;
29280;SDS011;25048;49.590;11.026;2023-06-24T09:17:22;4.80;;;2.92;;
29280;SDS011;25048;49.590;11.026;2023-06-24T09:19:49;3.98;;;3.22;;
29280;SDS011;25048;49.590;11.026;2023-06-24T09:22:17;3.10;;;2.80;;
29280;SDS011;25048;49.590;11.026;2023-06-24T09:24:46;4.60;;;2.77;;
29280;SDS011;25048;49.590;11.026;2023-06-24T09:27:15;3.75;;;3.00;;
29280;SDS011;25048;49.590;11.026;2023-06-24T09:29:47;2.92;;;2.52;;
29280;SDS011;25048;49.590;11.026;2023-06-24T09:32:15;3.85;;;2.83;;
29280;SDS011;25048;49.590;11.026;2023-06-24T09:34:43;6.87;;;3.00;;
29280;SDS011;25048;49.590;11.026;2023-06-24T09:37:10;4.55;;;2.92;;
29280;SDS011;25048;49.590;11.026;2023-06-24T09:39:41;4.10;;;2.40;;
29280;SDS011;25048;49.590;11.026;2023-06-24T09:42:10;3.62;;;3.02;;
29280;SDS011;25048;49.590;11.026;2023-06-24T09:44:39;4.00;;;2.83;;
29280;SDS011;25048;49.590;11.026;2023-06-24T09:47:07;3.27;;;2.40;;
29280;SDS011;25048;49.590;11.026;2023-06-24T09:49:35;5.40;;;2.42;;
29280;SDS011;25048;49.590;11.026;2023-06-24T09:52:02;5.67;;;2.58;;
29280;SDS011;25048;49.590;11.026;2023-06-24T09:54:33;5.83;;;2.47;;
29280;SDS011;25048;49.590;11.026;2023-06-24T09:57:02;3.60;;;2.27;;
29280;SDS011;25048;49.590;11.026;2023-06-24T09:59:30;8.88;;;3.05;;
29280;SDS011;25048;49.590;11.026;2023-06-24T10:01:59;3.58;;;2.67;;
29280;SDS011;25048;49.590;11.026;2023-06-24T10:04:28;4.75;;;2.75;;
29280;SDS011;25048;49.590;11.026;2023-06-24T10:07:01;8.65;;;3.33;;
29280;SDS011;25048;49.590;11.026;2023-06-24T10:09:28;5.33;;;2.67;;
29280;SDS011;25048;49.590;11.026;2023-06-24T10:11:56;7.97;;;3.25;;
29280;SDS011;25048;49.590;11.026;2023-06-24T10:14:24;68.95;;;9.70;;
29280;SDS011;25048;49.590;11.026;2023-06-24T10:17:00;17.92;;;5.28;;
29280;SDS011;25048;49.590;11.026;2023-06-24T10:19:22;10.10;;;3.45;;
29280;SDS011;25048;49.590;11.026;2023-06-24T10:21:50;16.55;;;3.95;;
29280;SDS011;25048;49.590;11.026;2023-06-24T10:24:30;4.72;;;2.87;;
29280;SDS011;25048;49.590;11.026;2023-06-24T10:27:02;4.08;;;2.70;;
29280;SDS011;25048;49.590;11.026;2023-06-24T10:29:33;3.77;;;2.87;;
29280;SDS011;25048;49.590;11.026;2023-06-24T10:32:09;5.03;;;3.25;;
29280;SDS011;25048;49.590;11.026;2023-06-24T10:39:55;3.83;;;3.10;;
29280;SDS011;25048;49.590;11.026;2023-06-24T10:42:36;3.95;;;2.92;;
29280;SDS011;25048;49.590;11.026;2023-06-24T10:47:41;3.30;;;2.85;;
29280;SDS011;25048;49.590;11.026;2023-06-24T10:50:11;3.40;;;3.10;;
29280;SDS011;25048;49.590;11.026;2023-06-24T10:52:44;3.50;;;2.50;;
29280;SDS011;25048;49.590;11.026;2023-06-24T10:55:18;3.27;;;2.75;;
29280;SDS011;25048;49.590;11.026;2023-06-24T10:57:46;4.55;;;2.55;;
29280;SDS011;25048;49.590;11.026;2023-06-24T11:00:14;3.90;;;2.87;;
29280;SDS011;25048;49.590;11.026;2023-06-24T11:02:42;5.50;;;2.87;;
29280;SDS011;25048;49.590;11.026;2023-06-24T11:05:11;2.80;;;2.60;;
29280;SDS011;25048;49.590;11.026;2023-06-24T11:07:38;4.33;;;3.22;;
29280;SDS011;25048;49.590;11.026;2023-06-24T11:10:07;2.85;;;2.55;;
29280;SDS011;25048;49.590;11.026;2023-06-24T11:12:37;2.95;;;2.65;;
29280;SDS011;25048;49.590;11.026;2023-06-24T11:15:06;3.50;;;2.90;;
29280;SDS011;25048;49.590;11.026;2023-06-24T11:17:35;2.60;;;2.20;;
29280;SDS011;25048;49.590;11.026;2023-06-24T11:20:07;4.87;;;2.80;;
29280;SDS011;25048;49.590;11.026;2023-06-24T11:22:36;4.75;;;2.65;;
29280;SDS011;25048;49.590;11.026;2023-06-24T11:25:04;4.60;;;2.50;;
29280;SDS011;25048;49.590;11.026;2023-06-24T11:27:32;5.42;;;2.70;;
29280;SDS011;25048;49.590;11.026;2023-06-24T11:30:00;3.42;;;2.95;;
29280;SDS011;25048;49.590;11.026;2023-06-24T11:32:35;3.52;;;2.92;;
29280;SDS011;25048;49.590;11.026;2023-06-24T11:35:07;4.30;;;2.62;;
29280;SDS011;25048;49.590;11.026;2023-06-24T11:37:36;2.70;;;2.50;;
29280;SDS011;25048;49.590;11.026;2023-06-24T11:40:07;4.10;;;2.75;;
29280;SDS011;25048;49.590;11.026;2023-06-24T11:42:35;21.10;;;8.13;;
29280;SDS011;25048;49.590;11.026;2023-06-24T11:45:05;22.10;;;8.28;;
29280;SDS011;25048;49.590;11.026;2023-06-24T11:47:35;10.48;;;4.45;;
29280;SDS011;25048;49.590;11.026;2023-06-24T11:50:06;29.82;;;9.38;;
29280;SDS011;25048;49.590;11.026;2023-06-24T11:52:38;16.12;;;5.08;;
29280;SDS011;25048;49.590;11.026;2023-06-24T11:55:14;16.48;;;5.87;;
29280;SDS011;25048;49.590;11.026;2023-06-24T11:57:55;8.40;;;3.87;;
29280;SDS011;25048;49.590;11.026;2023-06-24T12:00:29;2.67;;;2.40;;
29280;SDS011;25048;49.590;11.026;2023-06-24T12:02:59;16.70;;;6.95;;
29280;SDS011;25048;49.590;11.026;2023-06-24T12:05:29;6.90;;;3.50;;
29280;SDS011;25048;49.590;11.026;2023-06-24T12:07:58;6.62;;;2.50;;
29280;SDS011;25048;49.590;11.026;2023-06-24T12:10:28;3.33;;;2.60;;
29280;SDS011;25048;49.590;11.026;2023-06-24T12:12:58;3.80;;;2.00;;
29280;SDS011;25048;49.590;11.026;2023-06-24T12:15:27;8.00;;;3.12;;
29280;SDS011;25048;49.590;11.026;2023-06-24T12:17:55;2.25;;;1.95;;
29280;SDS011;25048;49.590;11.026;2023-06-24T12:20:24;2.58;;;2.10;;
29280;SDS011;25048;49.590;11.026;2023-06-24T12:22:52;2.60;;;2.25;;
29280;SDS011;25048;49.590;11.026;2023-06-24T12:25:19;3.85;;;1.80;;
29280;SDS011;25048;49.590;11.026;2023-06-24T12:27:47;4.40;;;2.40;;
29280;SDS011;25048;49.590;11.026;2023-06-24T12:30:16;3.95;;;2.33;;
29280;SDS011;25048;49.590;11.026;2023-06-24T12:32:44;2.60;;;1.90;;
29280;SDS011;25048;49.590;11.026;2023-06-24T12:35:11;3.50;;;2.17;;
29280;SDS011;25048;49.590;11.026;2023-06-24T12:37:39;4.12;;;2.42;;
29280;SDS011;25048;49.590;11.026;2023-06-24T12:40:07;2.60;;;2.15;;
29280;SDS011;25048;49.590;11.026;2023-06-24T12:42:34;2.67;;;1.98;;
29280;SDS011;25048;49.590;11.026;2023-06-24T12:45:02;2.35;;;2.10;;
29280;SDS011;25048;49.590;11.026;2023-06-24T12:47:30;3.40;;;2.30;;
29280;SDS011;25048;49.590;11.026;2023-06-24T12:49:57;5.97;;;2.33;;
29280;SDS011;25048;49.590;11.026;2023-06-24T12:52:25;5.37;;;2.35;;
29280;SDS011;25048;49.590;11.026;2023-06-24T12:54:52;4.58;;;2.33;;
29280;SDS011;25048;49.590;11.026;2023-06-24T12:57:20;3.72;;;2.42;;
29280;SDS011;25048;49.590;11.026;2023-06-24T12:59:47;3.25;;;2.20;;
29280;SDS011;25048;49.590;11.026;2023-06-24T13:02:15;5.03;;;2.10;;
29280;SDS011;25048;49.590;11.026;2023-06-24T13:04:42;4.90;;;2.65;;
29280;SDS011;25048;49.590;11.026;2023-06-24T13:07:10;4.03;;;2.42;;
29280;SDS011;25048;49.590;11.026;2023-06-24T13:09:38;2.65;;;2.40;;
29280;SDS011;25048;49.590;11.026;2023-06-24T13:12:05;4.20;;;2.40;;
29280;SDS011;25048;49.590;11.026;2023-06-24T13:14:34;2.55;;;2.20;;
29280;SDS011;25048;49.590;11.026;2023-06-24T13:17:01;6.35;;;2.42;;
29280;SDS011;25048;49.590;11.026;2023-06-24T13:19:29;4.65;;;2.60;;
29280;SDS011;25048;49.590;11.026;2023-06-24T13:21:58;3.25;;;2.70;;
29280;SDS011;25048;49.590;11.026;2023-06-24T13:24:26;5.03;;;2.37;;
29280;SDS011;25048;49.590;11.026;2023-06-24T13:26:53;3.15;;;2.60;;
29280;SDS011;25048;49.590;11.026;2023-06-24T13:29:21;2.90;;;2.30;;
29280;SDS011;25048;49.590;11.026;2023-06-24T13:31:48;2.98;;;2.20;;
29280;SDS011;25048;49.590;11.026;2023-06-24T13:34:16;5.03;;;2.35;;
29280;SDS011;25048;49.590;11.026;2023-06-24T13:36:43;3.08;;;2.20;;
29280;SDS011;25048;49.590;11.026;2023-06-24T13:39:11;2.65;;;2.10;;
29280;SDS011;25048;49.590;11.026;2023-06-24T13:41:39;3.42;;;1.87;;
29280;SDS011;25048;49.590;11.026;2023-06-24T13:44:06;2.67;;;2.15;;
29280;SDS011;25048;49.590;11.026;2023-06-24T13:46:34;2.05;;;1.85;;
29280;SDS011;25048;49.590;11.026;2023-06-24T13:49:02;3.92;;;2.20;;
29280;SDS011;25048;49.590;11.026;2023-06-24T13:51:29;3.62;;;2.17;;
29280;SDS011;25048;49.590;11.026;2023-06-24T13:53:57;3.52;;;2.60;;
29280;SDS011;25048;49.590;11.026;2023-06-24T13:56:24;2.77;;;2.30;;
29280;SDS011;25048;49.590;11.026;2023-06-24T13:58:53;4.78;;;2.52;;
29280;SDS011;25048;49.590;11.026;2023-06-24T14:01:21;4.20;;;2.50;;
29280;SDS011;25048;49.590;11.026;2023-06-24T14:03:49;20.27;;;2.40;;
29280;SDS011;25048;49.590;11.026;2023-06-24T14:06:19;2.98;;;2.20;;
29280;SDS011;25048;49.590;11.026;2023-06-24T14:08:48;2.42;;;1.87;;
29280;SDS011;25048;49.590;11.026;2023-06-24T14:11:16;3.12;;;2.08;;
29280;SDS011;25048;49.590;11.026;2023-06-24T14:13:44;3.12;;;2.12;;
29280;SDS011;25048;49.590;11.026;2023-06-24T14:16:12;2.87;;;2.08;;
29280;SDS011;25048;49.590;11.026;2023-06-24T14:18:39;4.17;;;2.12;;
29280;SDS011;25048;49.590;11.026;2023-06-24T14:21:08;3.50;;;2.42;;
29280;SDS011;25048;49.590;11.026;2023-06-24T14:23:35;3.50;;;2.20;;
29280;SDS011;25048;49.590;11.026;2023-06-24T14:26:03;2.42;;;1.90;;
29280;SDS011;25048;49.590;11.026;2023-06-24T14:28:30;3.25;;;2.12;;
29280;SDS011;25048;49.590;11.026;2023-06-24T14:30:58;2.83;;;2.20;;
29280;SDS011;25048;49.590;11.026;2023-06-24T14:33:25;2.02;;;1.60;;
29280;SDS011;25048;49.590;11.026;2023-06-24T14:35:53;5.05;;;2.05;;
29280;SDS011;25048;49.590;11.026;2023-06-24T14:41:08;2.90;;;2.27;;
29280;SDS011;25048;49.590;11.026;2023-06-24T14:43:36;5.15;;;2.40;;
29280;SDS011;25048;49.590;11.026;2023-06-24T14:46:03;2.92;;;2.60;;
29280;SDS011;25048;49.590;11.026;2023-06-24T14:48:31;3.72;;;2.33;;
29280;SDS011;25048;49.590;11.026;2023-06-24T14:50:58;3.02;;;2.50;;
29280;SDS011;25048;49.590;11.026;2023-06-24T14:53:26;2.45;;;2.25;;
29280;SDS011;25048;49.590;11.026;2023-06-24T14:55:53;2.80;;;2.20;;
29280;SDS011;25048;49.590;11.026;2023-06-24T14:58:21;2.72;;;2.20;;
29280;SDS011;25048;49.590;11.026;2023-06-24T15:00:48;5.42;;;2.22;;
29280;SDS011;25048;49.590;11.026;2023-06-24T15:03:16;3.55;;;2.27;;